EW5205 Weather Reports


Display with metric or nautical units.
time (UTC)temp
F
wind
direction
speed
MPH
gust
MPH
rain 1hr
in
rain 24hr
in
rain mn
in
humidity
%
barometer
mb
20240228223051 52 94 15.0 22.0 0.00 0.00 0.00 30 1020.8
20240228221550 51 85 15.0 20.0 0.00 0.00 0.00 31 1020.9
20240228220149 51 81 16.0 23.0 0.00 0.00 0.00 31 1020.9
20240228214549 50 104 16.0 24.0 0.00 0.00 0.00 32 1021.0
20240228213101 50 95 16.0 22.0 0.00 0.00 0.00 32 1020.9
20240228211546 49 88 18.0 25.0 0.00 0.00 0.00 33 1020.9
20240228204545 49 87 19.0 29.0 0.00 0.00 0.00 34 1021.1
20240228203017 50 91 22.0 29.0 0.00 0.00 0.00 32 1021.1
20240228201612 49 86 22.0 29.0 0.00 0.00 0.00 33 1021.3
20240228194515 50 72 19.0 25.0 0.00 0.00 0.00 32 1021.6
20240228193110 51 86 19.0 26.0 0.00 0.00 0.00 30 1021.6
20240228191555 51 108 18.0 26.0 0.00 0.00 0.00 31 1022.0
20240228184521 50 95 18.0 23.0 0.00 0.00 0.00 33 1022.4
20240228183009 49 91 18.0 24.0 0.00 0.00 0.00 35 1022.5
20240228181602 48 89 20.0 26.0 0.00 0.00 0.00 36 1022.8
20240228174550 46 100 20.0 26.0 0.00 0.00 0.00 37 1023.0
20240228173012 45 92 19.0 28.0 0.00 0.00 0.00 40 1023.0
20240228171627 44 88 22.0 28.0 0.00 0.00 0.00 42 1023.0
20240228164508 42 104 19.0 27.0 0.00 0.00 0.00 45 1022.9
20240228163003 43 89 18.0 24.0 0.00 0.00 0.00 44 1023.1
20240228161502 43 101 16.0 21.0 0.00 0.00 0.00 44 1023.2
20240228160001 42 86 13.0 20.0 0.00 0.00 0.00 46 1023.3
20240228154633 42 110 12.0 18.0 0.00 0.00 0.00 46 1023.0
20240228153104 42 84 7.0 12.0 0.00 0.00 0.00 48 1022.9
20240228151604 40 108 2.0 6.0 0.00 0.00 0.00 55 1023.0
20240228150058 38 41 0.0 0.0 0.00 0.00 0.00 59 1023.0
20240228144555 36 30 0.0 3.0 0.00 0.00 0.00 60 1023.0
20240228143101 35 32 3.0 5.0 0.00 0.00 0.00 60 1022.7
20240228141602 36 95 1.0 6.0 0.00 0.00 0.00 57 1022.3
20240228140107 35 104 4.0 6.0 0.00 0.00 0.00 59 1022.0
20240228134557 35 90 4.0 6.0 0.00 0.00 0.00 58 1021.9
20240228133044 37 84 1.0 3.0 0.00 0.00 0.00 60 1021.6
20240228131544 37 27 0.0 3.0 0.00 0.00 0.00 61 1021.3
20240228130035 38 20 0.0 0.0 0.00 0.00 0.00 59 1020.9
20240228124532 39 59 0.0 0.0 0.00 0.00 0.00 58 1020.6
20240228123034 40 76 0.0 0.0 0.00 0.00 0.00 59 1020.4
20240228121530 39 103 0.0 1.0 0.00 0.00 0.00 59 1020.3
20240228120025 40 129 0.0 0.0 0.00 0.00 0.00 58 1020.3
20240228114527 40 130 0.0 1.0 0.00 0.00 0.00 57 1019.9
20240228113019 40 143 0.0 1.0 0.00 0.00 0.00 56 1019.6
20240228111521 41 31 0.0 0.0 0.00 0.00 0.00 54 1019.0
20240228110012 42 31 0.0 0.0 0.00 0.00 0.00 54 1018.8
20240228104510 43 30 0.0 0.0 0.00 0.00 0.00 50 1018.7
20240228103004 45 275 0.0 0.0 0.00 0.00 0.00 48 1018.6
20240228101505 46 290 0.0 0.0 0.00 0.00 0.00 47 1018.4
20240228100002 46 264 0.0 0.0 0.00 0.00 0.00 46 1018.6
20240228094501 46 258 0.0 1.0 0.00 0.00 0.00 45 1018.6
20240228093101 46 259 0.0 0.0 0.00 0.00 0.00 44 1018.6
20240228091602 48 271 0.0 6.0 0.00 0.00 0.00 42 1018.6
20240228090056 48 252 0.0 0.0 0.00 0.00 0.00 41 1018.2
20240228084556 48 195 0.0 0.0 0.00 0.00 0.00 41 1018.2
20240228083059 49 191 0.0 2.0 0.00 0.00 0.00 39 1017.8
20240228081552 50 183 0.0 4.0 0.00 0.00 0.00 38 1017.7
20240228080049 49 166 1.0 5.0 0.00 0.00 0.00 39 1017.6
20240228074556 48 183 0.0 5.0 0.00 0.00 0.00 40 1017.5
20240228073043 48 164 0.0 2.0 0.00 0.00 0.00 41 1017.4
20240228071545 48 181 4.0 6.0 0.00 0.00 0.00 41 1017.4
20240228070038 47 191 0.0 4.0 0.00 0.00 0.00 43 1017.4
20240228064535 44 188 0.0 3.0 0.00 0.00 0.00 46 1017.1
20240228063038 45 149 0.0 0.0 0.00 0.00 0.00 44 1017.0
20240228061527 46 150 0.0 0.0 0.00 0.00 0.00 41 1016.7
20240228060025 47 212 0.0 5.0 0.00 0.00 0.00 41 1016.5
20240228054522 47 171 1.0 5.0 0.00 0.00 0.00 40 1016.2
20240228053018 47 178 0.0 4.0 0.00 0.00 0.00 41 1016.1
20240228051522 47 198 0.0 0.0 0.00 0.00 0.00 40 1015.6
20240228050011 49 219 0.0 6.0 0.00 0.00 0.00 39 1015.3
20240228044507 49 228 4.0 7.0 0.00 0.00 0.00 38 1014.9
20240228043005 50 214 4.0 10.0 0.00 0.00 0.00 37 1014.5
20240228041502 50 228 4.0 8.0 0.00 0.00 0.00 37 1014.5
20240228040100 51 252 2.0 9.0 0.00 0.00 0.00 35 1014.1
20240228034606 52 236 4.0 8.0 0.00 0.00 0.00 35 1013.8
20240228033155 53 239 6.0 10.0 0.00 0.00 0.00 33 1013.4
20240228031553 54 247 9.0 16.0 0.00 0.00 0.00 30 1013.0
20240228030052 55 242 8.0 15.0 0.00 0.00 0.00 30 1012.9
20240228024600 56 249 7.0 16.0 0.00 0.00 0.00 30 1012.6
20240228023100 56 250 8.0 17.0 0.00 0.00 0.00 30 1012.1
20240228021553 57 246 12.0 19.0 0.00 0.00 0.00 29 1011.8
20240228020049 57 259 11.0 18.0 0.00 0.00 0.00 28 1011.8
20240228014549 58 247 13.0 22.0 0.00 0.00 0.00 26 1011.5
20240228013050 59 249 13.0 23.0 0.00 0.00 0.00 25 1011.2
20240228011548 59 247 16.0 23.0 0.00 0.00 0.00 25 1010.8
20240228010057 60 247 15.0 24.0 0.00 0.00 0.00 23 1010.5
20240228004547 60 226 14.0 26.0 0.00 0.00 0.00 22 1010.1
20240228003128 61 257 18.0 27.0 0.00 0.00 0.00 22 1009.8
20240228001602 62 250 18.0 29.0 0.00 0.00 0.00 21 1009.6
20240227234539 63 246 17.0 32.0 0.00 0.00 0.00 21 1009.3
20240227233138 64 254 22.0 29.0 0.00 0.00 0.00 19 1008.9
20240227231559 65 236 19.0 32.0 0.00 0.00 0.00 19 1008.5
20240227230005 66 252 20.0 31.0 0.00 0.00 0.00 18 1008.3
20240227224605 66 260 27.0 35.0 0.00 0.00 0.00 19 1008.2